Time;durP1;ratioP1;P1;durP2;ratioP2;P2;SDS_P1;SDS_P2;PMS_P1;PMS_P2;Temp;Humidity;BMP_temperature;BMP_pressure;BME280_temperature;BME280_humidity;BME280_pressure;Samples;Min_cycle;Max_cycle;Signal;HPM_P1;HPM_P2
2022/07/17 00:00:17;;;;;;;7.18;2.85;;;13.40;99.90;;;;;;4892363;29;20132;-74
2022/07/17 00:02:43;;;;;;;6.05;2.58;;;13.40;99.90;;;;;;4889935;29;20048;-74
2022/07/17 00:05:08;;;;;;;4.47;2.33;;;13.40;99.90;;;;;;4890282;29;20408;-74
2022/07/17 00:07:34;;;;;;;4.97;2.42;;;13.40;99.90;;;;;;4887981;29;20075;-74
2022/07/17 00:10:00;;;;;;;7.57;2.78;;;13.30;99.90;;;;;;4892665;29;20047;-75
2022/07/17 00:12:27;;;;;;;7.30;2.97;;;13.40;99.90;;;;;;4889526;29;20048;-75
2022/07/17 00:14:53;;;;;;;6.25;3.20;;;13.30;99.90;;;;;;4889226;29;20518;-74
2022/07/17 00:17:19;;;;;;;6.97;3.30;;;13.30;99.90;;;;;;4891115;29;20119;-74
2022/07/17 00:19:44;;;;;;;11.00;4.00;;;13.20;99.90;;;;;;4885806;29;20055;-75
2022/07/17 00:22:10;;;;;;;9.95;3.20;;;13.20;99.90;;;;;;4890089;29;20161;-75
2022/07/17 00:24:36;;;;;;;7.85;4.15;;;13.20;99.90;;;;;;4890354;29;20539;-74
2022/07/17 00:27:01;;;;;;;9.88;3.40;;;13.20;99.90;;;;;;4892280;29;20742;-74
2022/07/17 00:29:28;;;;;;;5.65;3.33;;;13.20;99.90;;;;;;4891463;29;20044;-73
2022/07/17 00:31:54;;;;;;;7.55;3.63;;;13.20;99.90;;;;;;4893050;29;20128;-74
2022/07/17 00:34:19;;;;;;;9.32;4.13;;;13.10;99.90;;;;;;4891528;29;20135;-75
2022/07/17 00:36:45;;;;;;;7.40;3.60;;;13.10;99.90;;;;;;4892447;29;20076;-73
2022/07/17 00:39:11;;;;;;;10.18;4.05;;;13.10;99.90;;;;;;4886334;29;20074;-74
2022/07/17 00:41:36;;;;;;;8.68;4.38;;;13.00;99.90;;;;;;4892981;29;20048;-75
2022/07/17 00:44:11;;;;;;;10.15;4.55;;;13.10;99.90;;;;;;4886582;29;20057;-74
2022/07/17 00:46:38;;;;;;;11.13;4.57;;;13.10;99.90;;;;;;4888653;29;20124;-75
2022/07/17 00:49:05;;;;;;;8.70;4.25;;;13.00;99.90;;;;;;4892148;29;20398;-74
2022/07/17 00:51:31;;;;;;;10.32;4.28;;;13.00;99.90;;;;;;4888479;29;20052;-76
2022/07/17 00:53:58;;;;;;;9.17;4.77;;;13.00;99.90;;;;;;4890763;29;20139;-75
2022/07/17 00:56:24;;;;;;;9.70;4.25;;;13.00;99.90;;;;;;4891258;29;20407;-74
2022/07/17 00:58:51;;;;;;;8.48;4.13;;;12.90;99.90;;;;;;4885827;29;20052;-75
2022/07/17 01:01:17;;;;;;;9.13;4.88;;;12.90;99.90;;;;;;4888693;29;20588;-75
2022/07/17 01:03:43;;;;;;;9.18;4.68;;;12.90;99.90;;;;;;4889484;29;20136;-75
2022/07/17 01:06:09;;;;;;;7.72;4.53;;;12.90;99.90;;;;;;4891180;29;20136;-76
2022/07/17 01:08:35;;;;;;;8.95;4.75;;;12.80;99.90;;;;;;4889147;29;20442;-75
2022/07/17 01:11:02;;;;;;;6.25;4.45;;;12.70;99.90;;;;;;4887084;29;20048;-73
2022/07/17 01:13:28;;;;;;;7.55;4.40;;;12.70;99.90;;;;;;4892134;29;20480;-74
2022/07/17 01:15:54;;;;;;;9.05;4.57;;;12.70;99.90;;;;;;4890104;29;20052;-75
2022/07/17 01:18:20;;;;;;;8.35;4.72;;;12.70;99.90;;;;;;4891837;29;20036;-74
2022/07/17 01:20:48;;;;;;;7.85;4.55;;;12.70;99.90;;;;;;4892967;29;20054;-75
2022/07/17 01:23:16;;;;;;;9.27;5.32;;;12.60;99.90;;;;;;4891279;29;20506;-75
2022/07/17 01:25:42;;;;;;;8.10;4.78;;;12.60;99.90;;;;;;4890788;29;20048;-74
2022/07/17 01:28:08;;;;;;;7.97;4.70;;;12.60;99.90;;;;;;4888558;29;20048;-74
2022/07/17 01:30:34;;;;;;;8.50;5.05;;;12.60;99.90;;;;;;4886098;29;20051;-74
2022/07/17 01:33:01;;;;;;;8.20;4.15;;;12.60;99.90;;;;;;4886888;29;20496;-75
2022/07/17 01:35:27;;;;;;;9.27;4.13;;;12.50;99.90;;;;;;4895451;29;20479;-75
2022/07/17 01:37:52;;;;;;;6.82;4.55;;;12.50;99.90;;;;;;4897586;29;20084;-75
2022/07/17 01:40:18;;;;;;;6.88;4.20;;;12.50;99.90;;;;;;4895615;29;20068;-74
2022/07/17 01:42:49;;;;;;;6.82;4.07;;;12.50;99.90;;;;;;4888434;29;20045;-74
2022/07/17 01:45:17;;;;;;;7.15;4.20;;;12.50;99.90;;;;;;4889961;29;20082;-74
2022/07/17 01:47:43;;;;;;;6.93;4.28;;;12.50;99.90;;;;;;4895373;29;20076;-73
2022/07/17 01:50:10;;;;;;;7.50;4.35;;;12.40;99.90;;;;;;4890961;29;20068;-75
2022/07/17 01:52:38;;;;;;;7.82;4.35;;;12.40;99.90;;;;;;4890921;29;20468;-74
2022/07/17 01:55:05;;;;;;;6.32;4.13;;;12.40;99.90;;;;;;4894570;29;20044;-73
2022/07/17 01:57:31;;;;;;;8.45;4.43;;;12.40;99.90;;;;;;4895445;29;20052;-74
2022/07/17 01:59:57;;;;;;;7.55;4.38;;;12.40;99.90;;;;;;4887664;29;20064;-74
2022/07/17 02:02:22;;;;;;;7.60;4.20;;;12.30;99.90;;;;;;4893633;29;20092;-73
2022/07/17 02:04:48;;;;;;;6.78;4.35;;;12.30;99.90;;;;;;4896439;29;20483;-75
2022/07/17 02:07:14;;;;;;;5.57;3.88;;;12.20;99.90;;;;;;4890962;29;20041;-73
2022/07/17 02:09:39;;;;;;;7.22;4.55;;;12.20;99.90;;;;;;4888043;29;20098;-76
2022/07/17 02:12:06;;;;;;;8.25;4.60;;;12.20;99.90;;;;;;4895132;29;20120;-75
2022/07/17 02:14:35;;;;;;;9.13;4.50;;;12.20;99.90;;;;;;4895148;29;20457;-74
2022/07/17 02:17:02;;;;;;;6.30;4.53;;;12.10;99.90;;;;;;4892418;29;20544;-74
2022/07/17 02:19:27;;;;;;;6.70;4.50;;;12.20;99.90;;;;;;4890774;29;20051;-74
2022/07/17 02:21:53;;;;;;;8.25;4.65;;;12.20;99.90;;;;;;4887656;29;20037;-75
2022/07/17 02:24:19;;;;;;;8.00;4.50;;;12.10;99.90;;;;;;4881464;29;20044;-75
2022/07/17 02:26:45;;;;;;;7.20;4.72;;;12.10;99.90;;;;;;4891330;29;20029;-73
2022/07/17 02:29:10;;;;;;;7.35;4.88;;;12.10;99.90;;;;;;4891110;29;20556;-73
2022/07/17 02:31:36;;;;;;;9.68;4.88;;;12.20;99.90;;;;;;4895840;29;20347;-75
2022/07/17 02:34:02;;;;;;;8.85;5.10;;;12.10;99.90;;;;;;4895802;29;20051;-73
2022/07/17 02:36:28;;;;;;;5.80;4.25;;;12.00;99.90;;;;;;4889798;29;20059;-74
2022/07/17 02:38:54;;;;;;;8.25;4.55;;;12.00;99.90;;;;;;4890733;29;20044;-74
2022/07/17 02:41:20;;;;;;;6.97;4.55;;;12.00;99.90;;;;;;4894731;29;20041;-74
2022/07/17 02:43:46;;;;;;;8.93;4.72;;;12.00;99.90;;;;;;4891667;29;20053;-75
2022/07/17 02:46:13;;;;;;;8.70;4.82;;;12.00;99.90;;;;;;4893500;29;20047;-74
2022/07/17 02:48:40;;;;;;;5.20;4.68;;;12.00;99.90;;;;;;4892594;29;20052;-75
2022/07/17 02:51:06;;;;;;;;;;;12.00;99.90;;;;;;4895344;29;20156;-73
2022/07/17 02:53:32;;;;;;;7.43;5.13;;;11.90;99.90;;;;;;4907792;29;19972;-74
2022/07/17 02:55:58;;;;;;;9.60;5.60;;;11.80;99.90;;;;;;4894005;29;20056;-74
2022/07/17 02:58:24;;;;;;;7.32;5.20;;;11.90;99.90;;;;;;4895095;29;20041;-75
2022/07/17 03:00:51;;;;;;;6.80;5.25;;;11.90;99.90;;;;;;4892365;29;20082;-75
2022/07/17 03:03:19;;;;;;;7.10;5.15;;;11.90;99.90;;;;;;4892537;29;20045;-75
2022/07/17 03:05:46;;;;;;;7.47;5.38;;;11.90;99.90;;;;;;4893070;29;20036;-75
2022/07/17 03:08:13;;;;;;;6.78;5.32;;;11.80;99.90;;;;;;4892550;29;20056;-74
2022/07/17 03:10:39;;;;;;;6.97;4.93;;;11.80;99.90;;;;;;4891922;29;20123;-75
2022/07/17 03:13:05;;;;;;;10.45;5.40;;;11.80;99.90;;;;;;4894183;29;20052;-75
2022/07/17 03:15:30;;;;;;;8.60;5.72;;;11.80;99.90;;;;;;4891250;29;20044;-75
2022/07/17 03:17:56;;;;;;;7.95;5.47;;;11.80;99.90;;;;;;4886966;29;20053;-74
2022/07/17 03:20:22;;;;;;;7.35;5.65;;;11.80;99.90;;;;;;4893744;29;20048;-75
2022/07/17 03:22:48;;;;;;;7.70;5.53;;;11.70;99.90;;;;;;4894070;29;20143;-75
2022/07/17 03:25:13;;;;;;;7.13;5.40;;;11.80;99.90;;;;;;4894394;29;20045;-75
2022/07/17 03:27:39;;;;;;;9.20;4.82;;;11.80;99.90;;;;;;4893674;29;20076;-74
2022/07/17 03:30:06;;;;;;;8.50;5.18;;;11.80;99.90;;;;;;4886147;29;20045;-74
2022/07/17 03:32:32;;;;;;;6.47;4.97;;;11.70;99.90;;;;;;4894363;29;20063;-74
2022/07/17 03:34:57;;;;;;;7.47;5.57;;;11.70;99.90;;;;;;4893737;29;20053;-75
2022/07/17 03:37:23;;;;;;;8.45;5.50;;;11.60;99.90;;;;;;4891757;29;20045;-76
2022/07/17 03:39:49;;;;;;;6.72;4.28;;;11.60;99.90;;;;;;4890381;29;20144;-74
2022/07/17 03:42:15;;;;;;;6.70;4.50;;;11.50;99.90;;;;;;4895345;29;20052;-75
2022/07/17 03:44:41;;;;;;;9.82;4.68;;;11.40;99.90;;;;;;4890769;29;20045;-76
2022/07/17 03:47:07;;;;;;;6.70;4.93;;;11.40;99.90;;;;;;4885725;29;20084;-74
2022/07/17 03:49:33;;;;;;;7.63;4.50;;;11.40;99.90;;;;;;4894728;29;20132;-74
2022/07/17 03:51:58;;;;;;;7.32;4.88;;;11.40;99.90;;;;;;4891577;29;20053;-75
2022/07/17 03:54:25;;;;;;;9.48;4.97;;;11.30;99.90;;;;;;4890978;29;20108;-76
2022/07/17 03:56:50;;;;;;;7.82;5.40;;;11.30;99.90;;;;;;4889988;29;20453;-75
2022/07/17 03:59:19;;;;;;;7.30;5.32;;;11.40;99.90;;;;;;4890148;29;20044;-75
2022/07/17 04:01:45;;;;;;;8.77;5.25;;;11.40;99.90;;;;;;4890958;29;20046;-75
2022/07/17 04:04:11;;;;;;;9.18;5.47;;;11.40;99.90;;;;;;4887390;29;20088;-74
2022/07/17 04:06:37;;;;;;;7.03;5.32;;;11.50;99.90;;;;;;4888074;29;20076;-75
2022/07/17 04:09:04;;;;;;;7.65;5.32;;;11.50;99.90;;;;;;4889847;29;20474;-74
2022/07/17 04:11:30;;;;;;;8.53;5.73;;;11.50;99.90;;;;;;4891712;29;20059;-74
2022/07/17 04:13:56;;;;;;;7.68;5.72;;;11.50;99.90;;;;;;4892836;29;20477;-74
2022/07/17 04:16:21;;;;;;;8.25;5.57;;;11.50;99.90;;;;;;4884966;29;20068;-74
2022/07/17 04:18:49;;;;;;;7.68;5.60;;;11.60;99.90;;;;;;4892564;29;20238;-74
2022/07/17 04:21:15;;;;;;;8.52;5.28;;;11.60;99.90;;;;;;4889004;29;20048;-74
2022/07/17 04:23:41;;;;;;;9.55;5.70;;;11.60;99.90;;;;;;4892231;29;20519;-75
2022/07/17 04:26:09;;;;;;;10.68;5.68;;;11.60;99.90;;;;;;4892736;29;20408;-74
2022/07/17 04:28:36;;;;;;;7.10;5.50;;;11.60;99.90;;;;;;4885015;29;20132;-73
2022/07/17 04:31:02;;;;;;;8.07;5.35;;;11.60;99.90;;;;;;4887902;29;20197;-74
2022/07/17 04:33:27;;;;;;;6.45;5.45;;;11.50;99.90;;;;;;4891246;29;20040;-75
2022/07/17 04:35:53;;;;;;;6.10;5.30;;;11.50;99.90;;;;;;4891772;29;20044;-75
2022/07/17 04:38:19;;;;;;;7.55;5.63;;;11.50;99.90;;;;;;4892542;29;20052;-75
2022/07/17 04:40:46;;;;;;;5.95;5.30;;;11.50;99.90;;;;;;4892635;29;20124;-74
2022/07/17 04:43:12;;;;;;;9.18;5.85;;;11.50;99.90;;;;;;4890893;29;20485;-75
2022/07/17 04:45:38;;;;;;;8.88;5.70;;;11.60;99.90;;;;;;4887418;29;20055;-73
2022/07/17 04:48:04;;;;;;;8.65;6.32;;;11.70;99.90;;;;;;4892719;29;20029;-74
2022/07/17 04:50:30;;;;;;;8.32;5.70;;;11.70;99.90;;;;;;4892400;29;20063;-75
2022/07/17 04:52:57;;;;;;;9.32;6.70;;;11.80;99.90;;;;;;4890179;29;20452;-73
2022/07/17 04:55:23;;;;;;;6.83;6.03;;;11.80;99.90;;;;;;4906688;29;20056;-74
2022/07/17 04:57:49;;;;;;;9.23;6.32;;;11.90;99.90;;;;;;4890777;29;20052;-74
2022/07/17 05:00:16;;;;;;;8.95;6.18;;;11.90;99.90;;;;;;4891833;29;20044;-74
2022/07/17 05:02:42;;;;;;;8.87;6.07;;;12.00;99.90;;;;;;4889885;29;20048;-74
2022/07/17 05:05:08;;;;;;;10.35;6.75;;;12.10;99.90;;;;;;4890104;29;20144;-75
2022/07/17 05:07:34;;;;;;;9.50;5.93;;;12.10;99.90;;;;;;4888909;29;20148;-74
2022/07/17 05:10:00;;;;;;;8.35;6.20;;;12.20;99.90;;;;;;4890767;29;20052;-75
2022/07/17 05:12:27;;;;;;;12.00;7.40;;;12.30;99.90;;;;;;4891513;29;20560;-75
2022/07/17 05:14:53;;;;;;;9.10;6.80;;;12.30;99.90;;;;;;4887639;29;20396;-74
2022/07/17 05:17:18;;;;;;;8.30;6.50;;;12.40;99.90;;;;;;4890025;29;20473;-73
2022/07/17 05:19:44;;;;;;;10.70;7.18;;;12.40;99.90;;;;;;4907988;29;20123;-76
2022/07/17 05:22:10;;;;;;;11.02;7.03;;;12.50;99.90;;;;;;4882688;29;20041;-76
2022/07/17 05:24:36;;;;;;;9.48;6.57;;;12.60;99.90;;;;;;4890346;29;20053;-75
2022/07/17 05:27:01;;;;;;;9.57;6.65;;;12.60;99.90;;;;;;4891507;29;20041;-75
2022/07/17 05:29:27;;;;;;;10.18;7.35;;;12.70;99.90;;;;;;4892702;29;20052;-73
2022/07/17 05:31:53;;;;;;;9.07;6.70;;;12.80;99.90;;;;;;4889126;29;20512;-74
2022/07/17 05:34:20;;;;;;;11.48;6.95;;;12.80;99.90;;;;;;4890047;29;20048;-74
2022/07/17 05:36:49;;;;;;;12.57;6.10;;;12.90;99.90;;;;;;4890265;29;20072;-73
2022/07/17 05:39:36;;;;;;;8.63;6.00;;;13.00;99.90;;;;;;4889387;29;20117;-74
2022/07/17 05:42:02;;;;;;;9.38;5.68;;;13.10;99.90;;;;;;4890927;29;20500;-74
2022/07/17 05:44:28;;;;;;;9.88;5.78;;;13.20;99.90;;;;;;4893661;29;20492;-74
2022/07/17 05:46:54;;;;;;;12.18;5.90;;;13.30;99.90;;;;;;4891241;29;20177;-75
2022/07/17 05:49:20;;;;;;;7.68;5.13;;;13.40;99.90;;;;;;4889918;29;20060;-74
2022/07/17 05:51:46;;;;;;;9.80;5.43;;;13.50;99.90;;;;;;4888339;29;20055;-75
2022/07/17 05:54:12;;;;;;;7.95;5.22;;;13.70;99.90;;;;;;4881278;29;20131;-73
2022/07/17 05:56:41;;;;;;;9.02;5.13;;;13.70;99.90;;;;;;4893047;29;20370;-75
2022/07/17 05:59:07;;;;;;;8.38;5.53;;;13.80;99.90;;;;;;4886943;29;20044;-74
2022/07/17 06:01:33;;;;;;;10.63;5.47;;;13.90;99.90;;;;;;4890460;29;20122;-74
2022/07/17 06:03:59;;;;;;;9.68;5.43;;;13.90;99.90;;;;;;4880244;29;20448;-74
2022/07/17 06:06:37;;;;;;;8.65;5.25;;;13.90;99.90;;;;;;4891061;29;20056;-76
2022/07/17 06:09:03;;;;;;;7.63;4.82;;;13.90;99.90;;;;;;4885183;29;20048;-75
2022/07/17 06:11:29;;;;;;;6.65;5.57;;;14.00;99.90;;;;;;4891542;29;20048;-73
2022/07/17 06:14:04;;;;;;;8.85;5.05;;;14.10;99.90;;;;;;4887965;29;20050;-74
2022/07/17 06:16:30;;;;;;;11.80;5.45;;;14.20;99.90;;;;;;4890395;29;20571;-74
2022/07/17 06:18:56;;;;;;;8.32;5.10;;;14.30;99.90;;;;;;4885298;29;20492;-75
2022/07/17 06:21:22;;;;;;;7.57;5.80;;;14.40;99.90;;;;;;4890162;29;20048;-73
2022/07/17 06:23:51;;;;;;;10.00;5.47;;;14.40;99.90;;;;;;4895422;29;20059;-77
2022/07/17 06:26:25;;;;;;;8.90;5.55;;;14.50;99.90;;;;;;4894827;29;20103;-76
2022/07/17 06:28:51;;;;;;;9.27;5.47;;;14.50;99.90;;;;;;4891891;29;20064;-75
2022/07/17 06:31:17;;;;;;;9.38;5.30;;;14.60;99.90;;;;;;4894089;29;20058;-75
2022/07/17 06:33:47;;;;;;;8.32;4.47;;;14.60;99.90;;;;;;4896468;29;20044;-75
2022/07/17 06:36:13;;;;;;;11.27;4.32;;;14.70;99.90;;;;;;4894669;29;20040;-76
2022/07/17 06:38:44;;;;;;;9.07;4.65;;;14.70;99.90;;;;;;4882750;29;20053;-74
2022/07/17 06:41:10;;;;;;;9.52;4.93;;;14.70;99.90;;;;;;4888650;29;20051;-74
2022/07/17 06:43:36;;;;;;;11.07;5.50;;;14.70;99.90;;;;;;4891657;29;20037;-75
2022/07/17 06:46:02;;;;;;;10.23;5.38;;;14.70;99.90;;;;;;4887628;29;20041;-75
2022/07/17 06:48:28;;;;;;;9.77;4.38;;;14.70;99.90;;;;;;4882949;29;20115;-78
2022/07/17 06:51:06;;;;;;;9.02;4.22;;;14.80;99.90;;;;;;4891802;29;20515;-75
2022/07/17 06:53:32;;;;;;;8.48;4.07;;;14.90;99.90;;;;;;4889504;29;20076;-71
2022/07/17 06:55:57;;;;;;;7.97;3.95;;;15.00;99.90;;;;;;4882311;29;20092;-75
2022/07/17 06:58:23;;;;;;;6.93;3.92;;;15.10;99.90;;;;;;4883826;29;20056;-72
2022/07/17 07:00:49;;;;;;;8.32;3.97;;;15.30;99.90;;;;;;4893386;29;20045;-72
2022/07/17 07:03:14;;;;;;;7.65;3.88;;;15.30;99.90;;;;;;4895564;29;20072;-72
2022/07/17 07:05:40;;;;;;;7.85;3.63;;;15.50;99.90;;;;;;4893133;29;20508;-72
2022/07/17 07:08:05;;;;;;;10.10;3.20;;;15.70;99.90;;;;;;4889369;29;20096;-71
2022/07/17 07:10:32;;;;;;;7.97;3.78;;;15.90;99.90;;;;;;4892717;29;20041;-72
2022/07/17 07:12:57;;;;;;;8.98;3.63;;;16.00;99.90;;;;;;4888598;29;20151;-71
2022/07/17 07:15:24;;;;;;;10.85;4.15;;;16.10;99.90;;;;;;4894818;29;20370;-74
2022/07/17 07:17:49;;;;;;;7.63;2.55;;;16.10;99.90;;;;;;4897808;29;20072;-73
2022/07/17 07:20:15;;;;;;;9.70;3.05;;;16.30;99.90;;;;;;4892824;29;20068;-73
2022/07/17 07:22:40;;;;;;;8.23;2.17;;;16.40;99.90;;;;;;4894632;29;20103;-72
2022/07/17 07:25:06;;;;;;;7.00;1.92;;;16.50;99.90;;;;;;4894746;29;20132;-72
2022/07/17 07:27:32;;;;;;;5.38;1.98;;;16.60;99.90;;;;;;4894164;29;20052;-72
2022/07/17 07:29:58;;;;;;;8.20;2.75;;;16.70;99.90;;;;;;4895858;29;20051;-73
2022/07/17 07:32:23;;;;;;;6.13;2.75;;;16.80;99.90;;;;;;4892515;29;20461;-73
2022/07/17 07:34:49;;;;;;;6.55;2.08;;;16.90;99.90;;;;;;4907048;29;20044;-73
2022/07/17 07:37:15;;;;;;;6.50;1.80;;;17.00;99.90;;;;;;4897125;29;20041;-71
2022/07/17 07:39:40;;;;;;;8.82;2.10;;;17.10;99.90;;;;;;4888796;29;20060;-75
2022/07/17 07:42:07;;;;;;;4.95;1.30;;;17.20;99.90;;;;;;4882146;29;20040;-73
2022/07/17 07:44:32;;;;;;;8.07;1.90;;;17.30;99.90;;;;;;4892510;29;20051;-74
2022/07/17 07:46:58;;;;;;;6.22;1.95;;;17.40;99.90;;;;;;4889838;29;20057;-74
2022/07/17 07:49:24;;;;;;;8.25;1.48;;;17.40;99.90;;;;;;4892689;29;20056;-74
2022/07/17 07:51:50;;;;;;;7.47;1.63;;;17.40;99.90;;;;;;4891870;29;20412;-74
2022/07/17 07:54:16;;;;;;;5.28;1.50;;;17.50;99.90;;;;;;4894943;29;20051;-74
2022/07/17 07:56:41;;;;;;;5.65;1.70;;;17.50;99.90;;;;;;4887400;29;20476;-74
2022/07/17 07:59:07;;;;;;;8.57;1.80;;;17.50;99.90;;;;;;4891669;29;20045;-74
2022/07/17 08:01:33;;;;;;;6.07;1.63;;;17.50;99.90;;;;;;4893774;29;20037;-74
2022/07/17 08:03:59;;;;;;;6.68;1.45;;;17.50;99.90;;;;;;4893227;29;20184;-74
2022/07/17 08:06:24;;;;;;;4.78;1.40;;;17.70;99.90;;;;;;4894703;29;20048;-74
2022/07/17 08:08:50;;;;;;;5.55;1.40;;;17.80;99.90;;;;;;4892140;29;20041;-74
2022/07/17 08:11:16;;;;;;;6.97;1.85;;;17.90;99.90;;;;;;4890676;29;20045;-74
2022/07/17 08:13:44;;;;;;;5.15;1.48;;;17.90;99.90;;;;;;4890425;29;20140;-74
2022/07/17 08:16:10;;;;;;;4.80;1.55;;;18.00;99.90;;;;;;4892476;29;20127;-74
2022/07/17 08:18:36;;;;;;;5.88;1.70;;;18.00;99.90;;;;;;4890817;29;20060;-74
2022/07/17 08:21:01;;;;;;;5.53;1.52;;;18.10;99.90;;;;;;4891312;29;20048;-74
2022/07/17 08:23:27;;;;;;;5.45;1.58;;;18.10;99.90;;;;;;4892713;29;20044;-74
2022/07/17 08:26:22;;;;;;;5.53;1.45;;;18.10;99.90;;;;;;4889925;29;20131;-76
2022/07/17 08:28:49;;;;;;;8.70;1.65;;;18.20;99.90;;;;;;4877280;29;20101;-77
2022/07/17 08:31:18;;;;;;;7.45;1.58;;;18.30;99.90;;;;;;4892999;29;20055;-77
2022/07/17 08:34:05;;;;;;;8.35;1.95;;;18.30;99.90;;;;;;4891273;29;20076;-80
2022/07/17 08:36:37;;;;;;;5.60;1.77;;;18.40;99.90;;;;;;4893337;29;20051;-80
2022/07/17 08:39:18;;;;;;;6.00;1.80;;;18.50;99.90;;;;;;4880592;29;20567;-74
2022/07/17 08:41:52;;;;;;;4.90;1.38;;;18.60;99.90;;;;;;4884198;29;20612;-76
2022/07/17 08:44:24;;;;;;;6.72;1.60;;;18.60;99.90;;;;;;4884118;29;20049;-76
2022/07/17 08:46:51;;;;;;;7.65;1.35;;;18.80;99.90;;;;;;4891998;29;20192;-75
2022/07/17 08:49:23;;;;;;;5.75;1.50;;;18.80;99.90;;;;;;4885445;29;20056;-74
2022/07/17 08:51:55;;;;;;;5.82;1.42;;;18.90;99.90;;;;;;4893247;29;20051;-74
2022/07/17 08:54:22;;;;;;;6.40;1.48;;;18.90;99.90;;;;;;4893180;29;20519;-73
2022/07/17 08:56:48;;;;;;;;;;;19.00;99.90;;;;;;4890591;29;20056;-72
2022/07/17 08:59:14;;;;;;;5.43;1.77;;;19.00;99.90;;;;;;4893223;29;19926;-74
2022/07/17 09:01:43;;;;;;;4.97;1.23;;;19.00;99.90;;;;;;4900686;29;20051;-73
2022/07/17 09:04:09;;;;;;;3.95;1.52;;;19.10;99.90;;;;;;4907442;29;20131;-74
2022/07/17 09:06:38;;;;;;;6.28;1.23;;;19.20;99.90;;;;;;4885632;29;20099;-73
2022/07/17 09:09:12;;;;;;;5.05;1.40;;;19.20;99.90;;;;;;4890691;29;20168;-73
2022/07/17 09:11:54;;;;;;;3.85;1.40;;;19.30;99.90;;;;;;4886354;29;20049;-73
2022/07/17 09:14:21;;;;;;;4.55;1.63;;;19.30;99.90;;;;;;4888023;29;20059;-73
2022/07/17 09:16:52;;;;;;;8.38;1.70;;;19.30;99.90;;;;;;4889892;29;20512;-74
2022/07/17 09:19:29;;;;;;;4.22;1.50;;;19.40;99.90;;;;;;4890556;29;20132;-73
2022/07/17 09:22:08;;;;;;;4.82;1.48;;;19.50;99.90;;;;;;4882683;29;20045;-74
2022/07/17 09:24:43;;;;;;;4.78;1.35;;;19.60;99.90;;;;;;4892283;29;20045;-72
2022/07/17 09:27:09;;;;;;;6.43;1.52;;;19.70;99.90;;;;;;4889378;29;20411;-72
2022/07/17 09:29:49;;;;;;;4.63;2.03;;;19.70;99.90;;;;;;4889950;29;20080;-74
2022/07/17 09:32:20;;;;;;;5.07;1.50;;;19.70;99.90;;;;;;4891984;29;20056;-74
2022/07/17 09:34:51;;;;;;;5.80;1.70;;;19.70;99.70;;;;;;4892012;29;20056;-74
2022/07/17 09:37:17;;;;;;;5.78;1.65;;;19.70;99.90;;;;;;4898792;29;20044;-73
2022/07/17 09:39:43;;;;;;;6.60;1.67;;;19.70;99.90;;;;;;4893566;29;20054;-75
2022/07/17 09:42:09;;;;;;;5.03;1.87;;;19.70;99.90;;;;;;4890159;29;20045;-74
2022/07/17 09:44:35;;;;;;;4.53;1.60;;;19.80;99.90;;;;;;4893458;29;20784;-74
2022/07/17 09:47:02;;;;;;;6.22;1.77;;;20.00;99.90;;;;;;4891332;29;20368;-73
2022/07/17 09:49:29;;;;;;;6.47;1.60;;;20.10;99.90;;;;;;4895582;29;20124;-74
2022/07/17 09:51:55;;;;;;;8.02;1.40;;;20.20;99.90;;;;;;4896391;29;20123;-75
2022/07/17 09:54:22;;;;;;;6.07;1.40;;;20.30;99.90;;;;;;4889245;29;20037;-73
2022/07/17 09:56:50;;;;;;;5.07;1.40;;;20.30;99.90;;;;;;4886958;29;20057;-75
2022/07/17 09:59:18;;;;;;;5.70;1.67;;;20.40;99.90;;;;;;4895377;29;20076;-74
2022/07/17 10:01:48;;;;;;;5.18;1.58;;;20.50;99.90;;;;;;4897186;29;20045;-72
2022/07/17 10:04:17;;;;;;;8.20;1.70;;;20.40;99.40;;;;;;4897200;29;20063;-75
2022/07/17 10:06:43;;;;;;;3.95;1.27;;;20.50;99.90;;;;;;4894794;29;20036;-75
2022/07/17 10:09:13;;;;;;;5.75;1.60;;;20.50;99.90;;;;;;4895516;29;20056;-76
2022/07/17 10:11:40;;;;;;;6.13;1.65;;;20.60;99.70;;;;;;4899795;29;20048;-74
2022/07/17 10:14:12;;;;;;;7.78;1.77;;;20.60;98.30;;;;;;4892909;29;20474;-76
2022/07/17 10:16:38;;;;;;;3.85;1.20;;;20.70;99.30;;;;;;4896064;29;20171;-76
2022/07/17 10:19:19;;;;;;;4.40;1.58;;;20.70;99.40;;;;;;4887446;29;20417;-74
2022/07/17 10:21:56;;;;;;;3.80;1.58;;;20.90;99.10;;;;;;4884296;29;20064;-75
2022/07/17 10:24:22;;;;;;;5.22;1.58;;;21.10;97.90;;;;;;4889383;29;20148;-73
2022/07/17 10:26:51;;;;;;;5.38;1.55;;;21.20;96.30;;;;;;4891073;29;20108;-73
2022/07/17 10:29:38;;;;;;;7.03;1.52;;;21.20;93.90;;;;;;4886117;29;20151;-72
2022/07/17 10:32:09;;;;;;;3.85;1.30;;;21.30;93.90;;;;;;4894687;29;20527;-73
2022/07/17 10:34:40;;;;;;;6.13;1.52;;;21.40;95.80;;;;;;4894240;29;20458;-73
2022/07/17 10:37:24;;;;;;;4.40;1.42;;;21.50;97.20;;;;;;4896711;29;20044;-76
2022/07/17 10:39:55;;;;;;;5.63;1.30;;;21.50;94.20;;;;;;4895484;29;20048;-74
2022/07/17 10:42:38;;;;;;;4.55;1.25;;;21.50;93.50;;;;;;4893954;29;20089;-73
2022/07/17 10:45:15;;;;;;;4.32;1.23;;;21.60;93.90;;;;;;4895000;29;20157;-75
2022/07/17 10:47:56;;;;;;;4.30;1.30;;;21.50;91.30;;;;;;4893630;29;20075;-73
2022/07/17 10:50:35;;;;;;;6.20;1.20;;;21.60;93.70;;;;;;4896274;29;20060;-74
2022/07/17 10:53:17;;;;;;;4.10;1.30;;;21.60;92.30;;;;;;4894993;29;20128;-75
2022/07/17 10:55:48;;;;;;;5.32;1.38;;;21.70;94.30;;;;;;4895159;29;20055;-76
2022/07/17 10:58:28;;;;;;;4.55;1.30;;;21.80;95.50;;;;;;4896163;29;20056;-74
2022/07/17 11:01:00;;;;;;;6.30;1.83;;;21.90;95.30;;;;;;4895427;29;20049;-74
2022/07/17 11:03:26;;;;;;;7.40;1.65;;;22.00;92.80;;;;;;4894196;29;20148;-73
2022/07/17 11:05:52;;;;;;;3.28;1.23;;;22.10;93.00;;;;;;4895401;29;20117;-75
2022/07/17 11:08:18;;;;;;;3.78;1.30;;;22.20;91.70;;;;;;4894773;29;20176;-74
2022/07/17 11:10:45;;;;;;;4.07;1.40;;;22.20;84.00;;;;;;4892567;29;20540;-74
2022/07/17 11:13:13;;;;;;;4.60;1.20;;;22.20;84.20;;;;;;4895590;29;20523;-75
2022/07/17 11:15:47;;;;;;;7.53;1.60;;;22.30;84.70;;;;;;4887752;29;20136;-75
2022/07/17 11:18:18;;;;;;;4.97;1.50;;;22.30;83.10;;;;;;4877296;29;20045;-73
2022/07/17 11:20:58;;;;;;;4.10;1.60;;;22.30;86.20;;;;;;4876793;29;20045;-74
2022/07/17 11:23:30;;;;;;;6.28;1.65;;;22.40;88.50;;;;;;4876639;29;20682;-75
2022/07/17 11:25:57;;;;;;;5.53;1.50;;;22.50;86.10;;;;;;4886650;29;20076;-74
2022/07/17 11:28:43;;;;;;;4.28;1.30;;;22.50;81.80;;;;;;4895753;29;20053;-75
2022/07/17 11:31:35;;;;;;;4.47;1.50;;;22.60;84.10;;;;;;4893682;29;20045;-73
2022/07/17 11:34:02;;;;;;;5.38;1.30;;;22.70;75.30;;;;;;4892916;29;20055;-73
2022/07/17 11:36:31;;;;;;;5.32;1.52;;;22.60;79.00;;;;;;4893707;29;20396;-73
2022/07/17 11:38:58;;;;;;;4.70;1.42;;;22.70;76.20;;;;;;4894375;29;20053;-74
2022/07/17 11:41:33;;;;;;;6.25;1.65;;;22.70;79.40;;;;;;4893063;29;20100;-74
2022/07/17 11:43:58;;;;;;;3.85;1.45;;;22.70;72.40;;;;;;4892869;29;20047;-74
2022/07/17 11:46:27;;;;;;;2.75;1.20;;;22.60;77.20;;;;;;4895535;29;20053;-73
2022/07/17 11:48:52;;;;;;;7.03;1.50;;;22.60;76.70;;;;;;4893743;29;20500;-73
2022/07/17 11:51:18;;;;;;;3.20;1.25;;;22.70;76.80;;;;;;4893164;29;20040;-73
2022/07/17 11:53:43;;;;;;;4.65;1.50;;;22.70;85.30;;;;;;4893474;29;20100;-73
2022/07/17 11:56:20;;;;;;;3.40;1.60;;;22.90;80.30;;;;;;4895306;29;20045;-75
2022/07/17 11:58:47;;;;;;;4.35;1.55;;;22.90;75.90;;;;;;4894158;29;20044;-74
2022/07/17 12:01:13;;;;;;;4.22;1.63;;;23.00;77.50;;;;;;4893883;29;20048;-74
2022/07/17 12:03:39;;;;;;;6.22;1.52;;;23.10;73.90;;;;;;4894179;29;20795;-74
2022/07/17 12:06:05;;;;;;;4.38;1.85;;;23.20;78.20;;;;;;4893810;29;20389;-73
2022/07/17 12:08:31;;;;;;;5.57;1.55;;;23.30;73.70;;;;;;4894412;29;20437;-73
2022/07/17 12:11:16;;;;;;;5.93;2.00;;;23.30;71.30;;;;;;4893973;29;20184;-73
2022/07/17 12:13:47;;;;;;;4.13;1.50;;;23.40;75.40;;;;;;4892048;29;20048;-73
2022/07/17 12:16:28;;;;;;;4.10;1.58;;;23.40;70.30;;;;;;4894853;29;20048;-73
2022/07/17 12:19:03;;;;;;;4.78;1.60;;;23.40;70.50;;;;;;4893498;29;20516;-73
2022/07/17 12:21:29;;;;;;;5.03;1.60;;;23.40;72.10;;;;;;4893899;29;20068;-74
2022/07/17 12:24:04;;;;;;;4.10;1.57;;;23.30;69.70;;;;;;4894114;29;20041;-75
2022/07/17 12:26:30;;;;;;;3.30;1.40;;;23.30;67.50;;;;;;4893800;29;20077;-74
2022/07/17 12:28:57;;;;;;;4.90;1.48;;;23.30;68.80;;;;;;4893533;29;20067;-75
2022/07/17 12:31:23;;;;;;;4.63;1.93;;;23.40;71.20;;;;;;4892746;29;20488;-73
2022/07/17 12:33:51;;;;;;;4.03;1.50;;;23.40;78.10;;;;;;4892139;29;20084;-74
2022/07/17 12:36:17;;;;;;;6.75;1.42;;;23.50;78.00;;;;;;4893034;29;20052;-74
2022/07/17 12:38:43;;;;;;;6.78;1.63;;;23.60;70.50;;;;;;4894196;29;20469;-73
2022/07/17 12:41:09;;;;;;;3.80;1.30;;;23.70;68.80;;;;;;4891972;29;20123;-73
2022/07/17 12:43:35;;;;;;;3.60;1.35;;;23.80;72.10;;;;;;4892569;29;20446;-74
2022/07/17 12:46:01;;;;;;;3.75;1.75;;;23.90;69.10;;;;;;4893577;29;20045;-75
2022/07/17 12:48:26;;;;;;;3.92;1.58;;;24.00;67.40;;;;;;4892117;29;20083;-77